sensor_id;sensor_type;location;lat;lon;timestamp;temperature;humidity
37276;DHT22;23166;51.150;21.620;2022-11-20T00:01:10;-9.30;93.70
37276;DHT22;23166;51.150;21.620;2022-11-20T00:03:36;-9.20;93.30
37276;DHT22;23166;51.150;21.620;2022-11-20T00:06:05;-9.20;93.70
37276;DHT22;23166;51.150;21.620;2022-11-20T00:08:32;-9.20;94.30
37276;DHT22;23166;51.150;21.620;2022-11-20T00:11:04;-9.20;94.50
37276;DHT22;23166;51.150;21.620;2022-11-20T00:13:33;-9.20;94.30
37276;DHT22;23166;51.150;21.620;2022-11-20T00:16:00;-9.20;94.80
37276;DHT22;23166;51.150;21.620;2022-11-20T00:18:27;-9.20;94.70
37276;DHT22;23166;51.150;21.620;2022-11-20T00:23:41;-9.20;94.90
37276;DHT22;23166;51.150;21.620;2022-11-20T00:26:10;-9.20;94.50
37276;DHT22;23166;51.150;21.620;2022-11-20T00:28:37;-9.30;94.10
37276;DHT22;23166;51.150;21.620;2022-11-20T00:31:11;-9.30;94.30
37276;DHT22;23166;51.150;21.620;2022-11-20T00:33:39;-9.40;94.40
37276;DHT22;23166;51.150;21.620;2022-11-20T00:36:07;-9.40;94.20
37276;DHT22;23166;51.150;21.620;2022-11-20T00:38:34;-9.40;94.30
37276;DHT22;23166;51.150;21.620;2022-11-20T00:41:04;-9.40;94.30
37276;DHT22;23166;51.150;21.620;2022-11-20T00:43:30;-9.50;93.90
37276;DHT22;23166;51.150;21.620;2022-11-20T00:46:02;-9.50;93.80
37276;DHT22;23166;51.150;21.620;2022-11-20T00:48:29;-9.50;92.90
37276;DHT22;23166;51.150;21.620;2022-11-20T00:50:56;-9.50;92.20
37276;DHT22;23166;51.150;21.620;2022-11-20T00:53:22;-9.50;93.60
37276;DHT22;23166;51.150;21.620;2022-11-20T00:56:01;-9.50;93.80
37276;DHT22;23166;51.150;21.620;2022-11-20T00:58:33;-9.40;94.70
37276;DHT22;23166;51.150;21.620;2022-11-20T01:01:12;-9.40;95.00
37276;DHT22;23166;51.150;21.620;2022-11-20T01:03:36;-9.40;94.50
37276;DHT22;23166;51.150;21.620;2022-11-20T01:06:12;-9.40;93.90
37276;DHT22;23166;51.150;21.620;2022-11-20T01:08:36;-9.30;95.10
37276;DHT22;23166;51.150;21.620;2022-11-20T01:11:09;-9.30;95.00
37276;DHT22;23166;51.150;21.620;2022-11-20T01:13:36;-9.30;94.70
37276;DHT22;23166;51.150;21.620;2022-11-20T01:16:11;-9.30;94.50
37276;DHT22;23166;51.150;21.620;2022-11-20T01:18:40;-9.30;95.20
37276;DHT22;23166;51.150;21.620;2022-11-20T01:21:09;-9.20;95.60
37276;DHT22;23166;51.150;21.620;2022-11-20T01:23:38;-9.30;95.60
37276;DHT22;23166;51.150;21.620;2022-11-20T01:26:07;-9.30;95.60
37276;DHT22;23166;51.150;21.620;2022-11-20T01:28:33;-9.30;95.20
37276;DHT22;23166;51.150;21.620;2022-11-20T01:31:00;-9.30;94.20
37276;DHT22;23166;51.150;21.620;2022-11-20T01:33:27;-9.40;94.80
37276;DHT22;23166;51.150;21.620;2022-11-20T01:36:02;-9.40;95.20
37276;DHT22;23166;51.150;21.620;2022-11-20T01:38:22;-9.40;94.50
37276;DHT22;23166;51.150;21.620;2022-11-20T01:40:55;-9.50;93.50
37276;DHT22;23166;51.150;21.620;2022-11-20T01:43:22;-9.50;92.60
37276;DHT22;23166;51.150;21.620;2022-11-20T01:48:40;-9.60;92.00
37276;DHT22;23166;51.150;21.620;2022-11-20T01:51:07;-9.70;92.40
37276;DHT22;23166;51.150;21.620;2022-11-20T01:53:35;-9.80;92.60
37276;DHT22;23166;51.150;21.620;2022-11-20T01:56:05;-9.90;92.60
37276;DHT22;23166;51.150;21.620;2022-11-20T01:58:36;-9.90;92.70
37276;DHT22;23166;51.150;21.620;2022-11-20T02:01:03;-10.00;92.40
37276;DHT22;23166;51.150;21.620;2022-11-20T02:03:30;-10.10;91.10
37276;DHT22;23166;51.150;21.620;2022-11-20T02:08:41;-10.30;90.80
37276;DHT22;23166;51.150;21.620;2022-11-20T02:11:09;-10.30;90.70
37276;DHT22;23166;51.150;21.620;2022-11-20T02:13:35;-10.40;90.30
37276;DHT22;23166;51.150;21.620;2022-11-20T02:16:23;-10.50;90.80
37276;DHT22;23166;51.150;21.620;2022-11-20T02:18:50;-10.50;91.20
37276;DHT22;23166;51.150;21.620;2022-11-20T02:21:49;-10.50;91.10
37276;DHT22;23166;51.150;21.620;2022-11-20T02:24:18;-10.60;91.20
37276;DHT22;23166;51.150;21.620;2022-11-20T02:26:57;-10.60;92.60
37276;DHT22;23166;51.150;21.620;2022-11-20T02:29:26;-10.60;94.30
37276;DHT22;23166;51.150;21.620;2022-11-20T02:31:55;-10.60;96.40
37276;DHT22;23166;51.150;21.620;2022-11-20T02:34:22;-10.50;97.00
37276;DHT22;23166;51.150;21.620;2022-11-20T02:36:49;-10.50;96.40
37276;DHT22;23166;51.150;21.620;2022-11-20T02:39:16;-10.50;96.10
37276;DHT22;23166;51.150;21.620;2022-11-20T02:41:44;-10.50;95.60
37276;DHT22;23166;51.150;21.620;2022-11-20T02:44:10;-10.50;95.90
37276;DHT22;23166;51.150;21.620;2022-11-20T02:46:36;-10.50;96.10
37276;DHT22;23166;51.150;21.620;2022-11-20T02:49:04;-10.50;96.10
37276;DHT22;23166;51.150;21.620;2022-11-20T02:51:31;-10.50;96.10
37276;DHT22;23166;51.150;21.620;2022-11-20T02:53:58;-10.50;95.70
37276;DHT22;23166;51.150;21.620;2022-11-20T02:56:25;-10.50;95.70
37276;DHT22;23166;51.150;21.620;2022-11-20T02:58:51;-10.50;95.50
37276;DHT22;23166;51.150;21.620;2022-11-20T03:01:18;-10.50;95.10
37276;DHT22;23166;51.150;21.620;2022-11-20T03:03:44;-10.50;94.20
37276;DHT22;23166;51.150;21.620;2022-11-20T03:06:11;-10.50;94.10
37276;DHT22;23166;51.150;21.620;2022-11-20T03:08:37;-10.50;94.70
37276;DHT22;23166;51.150;21.620;2022-11-20T03:11:06;-10.40;95.20
37276;DHT22;23166;51.150;21.620;2022-11-20T03:13:33;-10.40;94.80
37276;DHT22;23166;51.150;21.620;2022-11-20T03:16:05;-10.40;94.20
37276;DHT22;23166;51.150;21.620;2022-11-20T03:18:32;-10.40;93.40
37276;DHT22;23166;51.150;21.620;2022-11-20T03:20:59;-10.50;92.30
37276;DHT22;23166;51.150;21.620;2022-11-20T03:23:25;-10.50;91.40
37276;DHT22;23166;51.150;21.620;2022-11-20T03:25:52;-10.60;90.60
37276;DHT22;23166;51.150;21.620;2022-11-20T03:28:18;-10.60;90.10
37276;DHT22;23166;51.150;21.620;2022-11-20T03:30:44;-10.60;90.70
37276;DHT22;23166;51.150;21.620;2022-11-20T03:33:11;-10.70;91.40
37276;DHT22;23166;51.150;21.620;2022-11-20T03:35:37;-10.70;91.60
37276;DHT22;23166;51.150;21.620;2022-11-20T03:38:04;-10.70;91.60
37276;DHT22;23166;51.150;21.620;2022-11-20T03:40:30;-10.70;91.60
37276;DHT22;23166;51.150;21.620;2022-11-20T03:42:56;-10.70;92.00
37276;DHT22;23166;51.150;21.620;2022-11-20T03:45:23;-10.80;93.50
37276;DHT22;23166;51.150;21.620;2022-11-20T03:47:49;-10.80;93.60
37276;DHT22;23166;51.150;21.620;2022-11-20T03:50:16;-10.80;92.80
37276;DHT22;23166;51.150;21.620;2022-11-20T03:52:42;-10.80;92.90
37276;DHT22;23166;51.150;21.620;2022-11-20T03:55:08;-10.80;93.40
37276;DHT22;23166;51.150;21.620;2022-11-20T03:57:35;-10.80;93.60
37276;DHT22;23166;51.150;21.620;2022-11-20T04:00:02;-10.80;93.10
37276;DHT22;23166;51.150;21.620;2022-11-20T04:02:29;-10.80;92.40
37276;DHT22;23166;51.150;21.620;2022-11-20T04:04:55;-10.80;91.90
37276;DHT22;23166;51.150;21.620;2022-11-20T04:07:22;-10.80;91.50
37276;DHT22;23166;51.150;21.620;2022-11-20T04:09:48;-10.80;92.00
37276;DHT22;23166;51.150;21.620;2022-11-20T04:12:14;-10.70;92.70
37276;DHT22;23166;51.150;21.620;2022-11-20T04:14:41;-10.70;92.90
37276;DHT22;23166;51.150;21.620;2022-11-20T04:17:07;-10.70;94.00
37276;DHT22;23166;51.150;21.620;2022-11-20T04:19:34;-10.70;94.10
37276;DHT22;23166;51.150;21.620;2022-11-20T04:22:00;-10.70;93.80
37276;DHT22;23166;51.150;21.620;2022-11-20T04:24:26;-10.70;93.50
37276;DHT22;23166;51.150;21.620;2022-11-20T04:26:53;-10.70;93.10
37276;DHT22;23166;51.150;21.620;2022-11-20T04:29:19;-10.70;92.60
37276;DHT22;23166;51.150;21.620;2022-11-20T04:31:45;-10.80;92.10
37276;DHT22;23166;51.150;21.620;2022-11-20T04:34:12;-10.80;91.40
37276;DHT22;23166;51.150;21.620;2022-11-20T04:36:38;-10.80;90.60
37276;DHT22;23166;51.150;21.620;2022-11-20T04:39:05;-10.90;89.80
37276;DHT22;23166;51.150;21.620;2022-11-20T04:41:34;-10.90;88.00
37276;DHT22;23166;51.150;21.620;2022-11-20T04:44:02;-11.00;89.10
37276;DHT22;23166;51.150;21.620;2022-11-20T04:46:35;-11.00;90.90
37276;DHT22;23166;51.150;21.620;2022-11-20T04:48:59;-11.00;91.50
37276;DHT22;23166;51.150;21.620;2022-11-20T04:51:26;-11.00;92.00
37276;DHT22;23166;51.150;21.620;2022-11-20T04:53:53;-11.10;91.60
37276;DHT22;23166;51.150;21.620;2022-11-20T04:56:19;-11.10;91.00
37276;DHT22;23166;51.150;21.620;2022-11-20T04:58:46;-11.10;90.70
37276;DHT22;23166;51.150;21.620;2022-11-20T05:01:18;-11.10;90.30
37276;DHT22;23166;51.150;21.620;2022-11-20T05:03:45;-11.20;90.10
37276;DHT22;23166;51.150;21.620;2022-11-20T05:06:14;-11.20;89.00
37276;DHT22;23166;51.150;21.620;2022-11-20T05:08:40;-11.20;88.10
37276;DHT22;23166;51.150;21.620;2022-11-20T05:11:13;-11.30;88.20
37276;DHT22;23166;51.150;21.620;2022-11-20T05:13:36;-11.30;90.20
37276;DHT22;23166;51.150;21.620;2022-11-20T05:16:08;-11.20;91.00
37276;DHT22;23166;51.150;21.620;2022-11-20T05:18:35;-11.20;92.30
37276;DHT22;23166;51.150;21.620;2022-11-20T05:21:02;-11.10;92.80
37276;DHT22;23166;51.150;21.620;2022-11-20T05:23:30;-11.10;92.30
37276;DHT22;23166;51.150;21.620;2022-11-20T05:25:57;-11.10;91.60
37276;DHT22;23166;51.150;21.620;2022-11-20T05:28:24;-11.00;91.50
37276;DHT22;23166;51.150;21.620;2022-11-20T05:30:51;-11.00;91.60
37276;DHT22;23166;51.150;21.620;2022-11-20T05:33:17;-11.00;91.60
37276;DHT22;23166;51.150;21.620;2022-11-20T05:35:43;-11.00;92.50
37276;DHT22;23166;51.150;21.620;2022-11-20T05:38:10;-10.90;92.80
37276;DHT22;23166;51.150;21.620;2022-11-20T05:40:36;-10.90;93.10
37276;DHT22;23166;51.150;21.620;2022-11-20T05:43:02;-10.90;93.80
37276;DHT22;23166;51.150;21.620;2022-11-20T05:45:28;-10.80;94.80
37276;DHT22;23166;51.150;21.620;2022-11-20T05:47:59;-10.80;95.40
37276;DHT22;23166;51.150;21.620;2022-11-20T05:50:27;-10.70;95.80
37276;DHT22;23166;51.150;21.620;2022-11-20T05:52:53;-10.80;95.10
37276;DHT22;23166;51.150;21.620;2022-11-20T05:55:20;-10.70;95.00
37276;DHT22;23166;51.150;21.620;2022-11-20T05:57:46;-10.70;94.50
37276;DHT22;23166;51.150;21.620;2022-11-20T06:00:13;-10.80;94.10
37276;DHT22;23166;51.150;21.620;2022-11-20T06:02:40;-10.80;94.20
37276;DHT22;23166;51.150;21.620;2022-11-20T06:05:06;-10.80;94.60
37276;DHT22;23166;51.150;21.620;2022-11-20T06:07:33;-10.80;94.00
37276;DHT22;23166;51.150;21.620;2022-11-20T06:09:59;-10.80;93.60
37276;DHT22;23166;51.150;21.620;2022-11-20T06:12:26;-10.80;93.10
37276;DHT22;23166;51.150;21.620;2022-11-20T06:14:52;-10.80;92.80
37276;DHT22;23166;51.150;21.620;2022-11-20T06:17:18;-10.80;92.60
37276;DHT22;23166;51.150;21.620;2022-11-20T06:19:45;-10.70;92.70
37276;DHT22;23166;51.150;21.620;2022-11-20T06:22:11;-10.70;92.80
37276;DHT22;23166;51.150;21.620;2022-11-20T06:24:37;-10.70;93.20
37276;DHT22;23166;51.150;21.620;2022-11-20T06:27:04;-10.70;93.30
37276;DHT22;23166;51.150;21.620;2022-11-20T06:29:30;-10.60;93.60
37276;DHT22;23166;51.150;21.620;2022-11-20T06:31:56;-10.50;93.90
37276;DHT22;23166;51.150;21.620;2022-11-20T06:34:23;-10.50;94.90
37276;DHT22;23166;51.150;21.620;2022-11-20T06:36:49;-10.30;96.10
37276;DHT22;23166;51.150;21.620;2022-11-20T06:39:16;-10.20;96.30
37276;DHT22;23166;51.150;21.620;2022-11-20T06:41:42;-10.10;96.90
37276;DHT22;23166;51.150;21.620;2022-11-20T06:44:08;-10.00;97.40
37276;DHT22;23166;51.150;21.620;2022-11-20T06:46:35;-9.90;97.60
37276;DHT22;23166;51.150;21.620;2022-11-20T06:49:01;-9.80;97.90
37276;DHT22;23166;51.150;21.620;2022-11-20T06:51:27;-9.70;98.30
37276;DHT22;23166;51.150;21.620;2022-11-20T06:53:54;-9.60;98.40
37276;DHT22;23166;51.150;21.620;2022-11-20T06:56:20;-9.50;98.50
37276;DHT22;23166;51.150;21.620;2022-11-20T06:58:47;-9.40;98.80
37276;DHT22;23166;51.150;21.620;2022-11-20T07:01:14;-9.30;98.70
37276;DHT22;23166;51.150;21.620;2022-11-20T07:03:41;-9.20;99.00
37276;DHT22;23166;51.150;21.620;2022-11-20T07:06:08;-9.00;98.90
37276;DHT22;23166;51.150;21.620;2022-11-20T07:08:35;-8.90;98.70
37276;DHT22;23166;51.150;21.620;2022-11-20T07:11:03;-8.80;98.80
37276;DHT22;23166;51.150;21.620;2022-11-20T07:13:31;-8.80;98.30
37276;DHT22;23166;51.150;21.620;2022-11-20T07:16:02;-8.70;98.30
37276;DHT22;23166;51.150;21.620;2022-11-20T07:18:28;-8.60;98.90
37276;DHT22;23166;51.150;21.620;2022-11-20T07:20:55;-8.50;99.60
37276;DHT22;23166;51.150;21.620;2022-11-20T07:23:21;-8.40;99.90
37276;DHT22;23166;51.150;21.620;2022-11-20T07:25:48;-8.30;99.90
37276;DHT22;23166;51.150;21.620;2022-11-20T07:28:14;-8.20;99.90
37276;DHT22;23166;51.150;21.620;2022-11-20T07:30:41;-8.00;99.90
37276;DHT22;23166;51.150;21.620;2022-11-20T07:33:07;-7.90;99.90
37276;DHT22;23166;51.150;21.620;2022-11-20T07:35:33;-7.80;99.90
37276;DHT22;23166;51.150;21.620;2022-11-20T07:38:00;-7.70;99.90
37276;DHT22;23166;51.150;21.620;2022-11-20T07:40:26;-7.60;99.90
37276;DHT22;23166;51.150;21.620;2022-11-20T07:42:54;-7.50;99.90
37276;DHT22;23166;51.150;21.620;2022-11-20T07:45:23;-7.30;99.90
37276;DHT22;23166;51.150;21.620;2022-11-20T07:47:50;-7.20;99.90
37276;DHT22;23166;51.150;21.620;2022-11-20T07:50:17;-7.00;99.90
37276;DHT22;23166;51.150;21.620;2022-11-20T07:52:43;-6.90;99.90
37276;DHT22;23166;51.150;21.620;2022-11-20T07:55:10;-6.70;99.90
37276;DHT22;23166;51.150;21.620;2022-11-20T07:57:37;-6.60;99.90
37276;DHT22;23166;51.150;21.620;2022-11-20T08:00:05;-6.40;99.90
37276;DHT22;23166;51.150;21.620;2022-11-20T08:02:33;-6.30;99.90
37276;DHT22;23166;51.150;21.620;2022-11-20T08:04:59;-6.10;99.90
37276;DHT22;23166;51.150;21.620;2022-11-20T08:07:25;-5.90;99.90
37276;DHT22;23166;51.150;21.620;2022-11-20T08:09:52;-5.70;99.90
37276;DHT22;23166;51.150;21.620;2022-11-20T08:12:20;-5.50;99.90
37276;DHT22;23166;51.150;21.620;2022-11-20T08:15:05;-5.30;99.90
37276;DHT22;23166;51.150;21.620;2022-11-20T08:17:31;-5.00;99.90
37276;DHT22;23166;51.150;21.620;2022-11-20T08:19:58;-4.80;99.90
37276;DHT22;23166;51.150;21.620;2022-11-20T08:22:24;-4.50;99.90
37276;DHT22;23166;51.150;21.620;2022-11-20T08:24:51;-4.30;99.90
37276;DHT22;23166;51.150;21.620;2022-11-20T08:27:17;-4.00;99.90
37276;DHT22;23166;51.150;21.620;2022-11-20T08:29:44;-3.80;99.90
37276;DHT22;23166;51.150;21.620;2022-11-20T08:32:10;-3.60;99.90
37276;DHT22;23166;51.150;21.620;2022-11-20T08:34:38;-3.40;99.90
37276;DHT22;23166;51.150;21.620;2022-11-20T08:37:05;-3.20;99.90
37276;DHT22;23166;51.150;21.620;2022-11-20T08:39:31;-3.00;99.90
37276;DHT22;23166;51.150;21.620;2022-11-20T08:41:57;-2.70;99.90
37276;DHT22;23166;51.150;21.620;2022-11-20T08:44:24;-2.50;99.90
37276;DHT22;23166;51.150;21.620;2022-11-20T08:46:50;-2.30;99.90
37276;DHT22;23166;51.150;21.620;2022-11-20T08:49:17;-2.10;99.90
37276;DHT22;23166;51.150;21.620;2022-11-20T08:51:43;-1.90;99.90
37276;DHT22;23166;51.150;21.620;2022-11-20T08:54:12;-1.70;99.90
37276;DHT22;23166;51.150;21.620;2022-11-20T08:56:41;-1.50;99.90
37276;DHT22;23166;51.150;21.620;2022-11-20T08:59:07;-1.30;99.90
37276;DHT22;23166;51.150;21.620;2022-11-20T09:01:33;-1.10;99.90
37276;DHT22;23166;51.150;21.620;2022-11-20T09:04:00;-0.90;99.90
37276;DHT22;23166;51.150;21.620;2022-11-20T09:06:26;-0.70;99.90
37276;DHT22;23166;51.150;21.620;2022-11-20T09:08:53;-0.60;99.90
37276;DHT22;23166;51.150;21.620;2022-11-20T09:11:19;-0.50;99.90
37276;DHT22;23166;51.150;21.620;2022-11-20T09:13:46;-0.40;99.90
37276;DHT22;23166;51.150;21.620;2022-11-20T09:16:12;-0.40;99.90
37276;DHT22;23166;51.150;21.620;2022-11-20T09:18:39;-0.40;99.90
37276;DHT22;23166;51.150;21.620;2022-11-20T09:21:08;-0.40;99.90
37276;DHT22;23166;51.150;21.620;2022-11-20T09:23:37;-0.40;99.90
37276;DHT22;23166;51.150;21.620;2022-11-20T09:26:09;-0.30;99.90
37276;DHT22;23166;51.150;21.620;2022-11-20T09:28:36;-0.30;99.90
37276;DHT22;23166;51.150;21.620;2022-11-20T09:31:08;-0.30;99.90
37276;DHT22;23166;51.150;21.620;2022-11-20T09:33:35;-0.20;99.90
37276;DHT22;23166;51.150;21.620;2022-11-20T09:36:01;-0.20;99.90
37276;DHT22;23166;51.150;21.620;2022-11-20T09:38:28;-0.10;99.90
37276;DHT22;23166;51.150;21.620;2022-11-20T09:41:06;0.00;99.90
37276;DHT22;23166;51.150;21.620;2022-11-20T09:46:29;0.10;99.90
37276;DHT22;23166;51.150;21.620;2022-11-20T09:51:57;0.30;99.90
37276;DHT22;23166;51.150;21.620;2022-11-20T09:54:26;0.40;99.90
37276;DHT22;23166;51.150;21.620;2022-11-20T09:57:13;0.50;99.90
37276;DHT22;23166;51.150;21.620;2022-11-20T09:59:42;0.60;99.90
37276;DHT22;23166;51.150;21.620;2022-11-20T10:04:55;0.90;99.90
37276;DHT22;23166;51.150;21.620;2022-11-20T10:07:24;0.90;99.90
37276;DHT22;23166;51.150;21.620;2022-11-20T10:09:53;1.00;99.90
37276;DHT22;23166;51.150;21.620;2022-11-20T10:15:59;1.00;99.90
37276;DHT22;23166;51.150;21.620;2022-11-20T10:29:21;1.30;99.90
37276;DHT22;23166;51.150;21.620;2022-11-20T10:31:54;1.30;99.90
37276;DHT22;23166;51.150;21.620;2022-11-20T10:34:27;1.30;99.90
37276;DHT22;23166;51.150;21.620;2022-11-20T10:37:03;1.30;99.90
37276;DHT22;23166;51.150;21.620;2022-11-20T10:42:45;1.40;99.90
37276;DHT22;23166;51.150;21.620;2022-11-20T10:45:32;1.40;99.90
37276;DHT22;23166;51.150;21.620;2022-11-20T10:48:16;1.40;99.90
37276;DHT22;23166;51.150;21.620;2022-11-20T10:53:58;1.40;99.90
37276;DHT22;23166;51.150;21.620;2022-11-20T10:56:48;1.40;99.90
37276;DHT22;23166;51.150;21.620;2022-11-20T10:59:38;1.40;99.90
37276;DHT22;23166;51.150;21.620;2022-11-20T11:02:23;1.40;99.90
37276;DHT22;23166;51.150;21.620;2022-11-20T11:04:54;1.30;97.60
37276;DHT22;23166;51.150;21.620;2022-11-20T11:07:23;1.30;97.40
37276;DHT22;23166;51.150;21.620;2022-11-20T11:09:53;1.20;95.90
37276;DHT22;23166;51.150;21.620;2022-11-20T11:12:21;1.20;96.60
37276;DHT22;23166;51.150;21.620;2022-11-20T11:14:53;1.20;94.20
37276;DHT22;23166;51.150;21.620;2022-11-20T11:17:29;1.20;96.20
37276;DHT22;23166;51.150;21.620;2022-11-20T11:20:14;1.20;96.20
37276;DHT22;23166;51.150;21.620;2022-11-20T11:22:34;1.20;94.60
37276;DHT22;23166;51.150;21.620;2022-11-20T11:25:01;1.10;91.10
37276;DHT22;23166;51.150;21.620;2022-11-20T11:27:27;1.10;87.70
37276;DHT22;23166;51.150;21.620;2022-11-20T11:30:13;1.00;87.80
37276;DHT22;23166;51.150;21.620;2022-11-20T11:32:40;1.00;85.30
37276;DHT22;23166;51.150;21.620;2022-11-20T11:35:25;0.90;92.50
37276;DHT22;23166;51.150;21.620;2022-11-20T11:37:49;0.90;93.40
37276;DHT22;23166;51.150;21.620;2022-11-20T11:40:18;0.90;91.60
37276;DHT22;23166;51.150;21.620;2022-11-20T11:42:52;0.90;93.50
37276;DHT22;23166;51.150;21.620;2022-11-20T11:45:18;0.80;91.50
37276;DHT22;23166;51.150;21.620;2022-11-20T11:47:46;0.80;90.20
37276;DHT22;23166;51.150;21.620;2022-11-20T11:50:17;0.70;92.20
37276;DHT22;23166;51.150;21.620;2022-11-20T11:57:54;0.70;96.20
37276;DHT22;23166;51.150;21.620;2022-11-20T12:00:22;0.80;95.80
37276;DHT22;23166;51.150;21.620;2022-11-20T12:02:56;0.80;95.10
37276;DHT22;23166;51.150;21.620;2022-11-20T12:05:30;0.90;99.20
37276;DHT22;23166;51.150;21.620;2022-11-20T12:11:20;1.30;99.90
37276;DHT22;23166;51.150;21.620;2022-11-20T12:14:48;1.60;95.70
37276;DHT22;23166;51.150;21.620;2022-11-20T12:16:38;1.80;97.50
37276;DHT22;23166;51.150;21.620;2022-11-20T12:19:11;2.00;93.00
37276;DHT22;23166;51.150;21.620;2022-11-20T12:29:40;2.40;79.40
37276;DHT22;23166;51.150;21.620;2022-11-20T12:43:11;1.50;73.20
37276;DHT22;23166;51.150;21.620;2022-11-20T12:57:46;0.30;91.30
37276;DHT22;23166;51.150;21.620;2022-11-20T13:00:25;0.10;94.20
37276;DHT22;23166;51.150;21.620;2022-11-20T13:02:59;-0.10;95.70
37276;DHT22;23166;51.150;21.620;2022-11-20T13:08:10;-0.30;98.60
37276;DHT22;23166;51.150;21.620;2022-11-20T13:15:55;-0.50;99.90
37276;DHT22;23166;51.150;21.620;2022-11-20T13:18:19;-0.60;99.90
37276;DHT22;23166;51.150;21.620;2022-11-20T13:20:46;-0.70;99.90
37276;DHT22;23166;51.150;21.620;2022-11-20T13:23:27;-0.70;99.90
37276;DHT22;23166;51.150;21.620;2022-11-20T13:26:05;-0.80;99.90
37276;DHT22;23166;51.150;21.620;2022-11-20T13:28:31;-0.80;99.90
37276;DHT22;23166;51.150;21.620;2022-11-20T13:30:58;-0.90;99.90
37276;DHT22;23166;51.150;21.620;2022-11-20T13:33:32;-1.00;99.90
37276;DHT22;23166;51.150;21.620;2022-11-20T13:35:59;-1.00;99.90
37276;DHT22;23166;51.150;21.620;2022-11-20T13:38:25;-1.10;99.90
37276;DHT22;23166;51.150;21.620;2022-11-20T13:40:57;-1.20;99.90
37276;DHT22;23166;51.150;21.620;2022-11-20T13:43:42;-1.20;99.90
37276;DHT22;23166;51.150;21.620;2022-11-20T13:46:10;-1.30;99.90
37276;DHT22;23166;51.150;21.620;2022-11-20T13:48:43;-1.30;99.90
37276;DHT22;23166;51.150;21.620;2022-11-20T13:51:37;-1.40;99.90
37276;DHT22;23166;51.150;21.620;2022-11-20T13:54:25;-1.40;99.90
37276;DHT22;23166;51.150;21.620;2022-11-20T14:00:01;-1.50;99.90
37276;DHT22;23166;51.150;21.620;2022-11-20T14:02:27;-1.60;99.90
37276;DHT22;23166;51.150;21.620;2022-11-20T14:04:57;-1.70;99.90
37276;DHT22;23166;51.150;21.620;2022-11-20T14:07:35;-1.80;99.90
37276;DHT22;23166;51.150;21.620;2022-11-20T14:10:00;-1.90;99.90
37276;DHT22;23166;51.150;21.620;2022-11-20T14:12:31;-2.00;99.90
37276;DHT22;23166;51.150;21.620;2022-11-20T14:14:58;-2.10;99.90
37276;DHT22;23166;51.150;21.620;2022-11-20T14:20:05;-2.20;99.90
37276;DHT22;23166;51.150;21.620;2022-11-20T14:22:32;-2.40;99.90
37276;DHT22;23166;51.150;21.620;2022-11-20T14:27:40;-2.60;99.90
37276;DHT22;23166;51.150;21.620;2022-11-20T14:30:22;-2.80;99.90
37276;DHT22;23166;51.150;21.620;2022-11-20T14:32:49;-2.90;99.90
37276;DHT22;23166;51.150;21.620;2022-11-20T14:35:23;-3.10;99.90
37276;DHT22;23166;51.150;21.620;2022-11-20T14:37:50;-3.30;99.90
37276;DHT22;23166;51.150;21.620;2022-11-20T14:40:26;-3.40;99.90
37276;DHT22;23166;51.150;21.620;2022-11-20T14:42:53;-3.60;99.90
37276;DHT22;23166;51.150;21.620;2022-11-20T14:45:20;-3.80;99.90
37276;DHT22;23166;51.150;21.620;2022-11-20T14:47:48;-3.90;99.90
37276;DHT22;23166;51.150;21.620;2022-11-20T14:50:22;-4.10;99.90
37276;DHT22;23166;51.150;21.620;2022-11-20T14:52:58;-4.20;99.90
37276;DHT22;23166;51.150;21.620;2022-11-20T14:55:39;-4.40;99.90
37276;DHT22;23166;51.150;21.620;2022-11-20T15:01:03;-4.70;99.90
37276;DHT22;23166;51.150;21.620;2022-11-20T15:03:35;-4.80;99.90
37276;DHT22;23166;51.150;21.620;2022-11-20T15:06:01;-4.90;99.90
37276;DHT22;23166;51.150;21.620;2022-11-20T15:08:29;-5.00;99.90
37276;DHT22;23166;51.150;21.620;2022-11-20T15:10:56;-5.10;99.90
37276;DHT22;23166;51.150;21.620;2022-11-20T15:13:26;-5.10;99.90
37276;DHT22;23166;51.150;21.620;2022-11-20T15:15:55;-5.20;99.90
37276;DHT22;23166;51.150;21.620;2022-11-20T15:18:37;-5.30;99.90
37276;DHT22;23166;51.150;21.620;2022-11-20T15:21:02;-5.40;99.90
37276;DHT22;23166;51.150;21.620;2022-11-20T15:23:29;-5.40;99.90
37276;DHT22;23166;51.150;21.620;2022-11-20T15:25:56;-5.50;99.90
37276;DHT22;23166;51.150;21.620;2022-11-20T15:28:29;-5.60;99.90
37276;DHT22;23166;51.150;21.620;2022-11-20T15:30:55;-5.70;99.90
37276;DHT22;23166;51.150;21.620;2022-11-20T15:33:22;-5.70;99.90
37276;DHT22;23166;51.150;21.620;2022-11-20T15:35:48;-5.80;99.90
37276;DHT22;23166;51.150;21.620;2022-11-20T15:38:15;-5.80;99.90
37276;DHT22;23166;51.150;21.620;2022-11-20T15:40:41;-5.90;99.90
37276;DHT22;23166;51.150;21.620;2022-11-20T15:43:07;-5.90;99.90
37276;DHT22;23166;51.150;21.620;2022-11-20T15:48:27;-6.00;99.90
37276;DHT22;23166;51.150;21.620;2022-11-20T15:51:41;-6.10;99.90
37276;DHT22;23166;51.150;21.620;2022-11-20T15:53:24;-6.00;99.90
37276;DHT22;23166;51.150;21.620;2022-11-20T15:55:50;-6.00;99.90
37276;DHT22;23166;51.150;21.620;2022-11-20T15:58:17;-5.90;99.90
37276;DHT22;23166;51.150;21.620;2022-11-20T16:00:43;-5.80;99.90
37276;DHT22;23166;51.150;21.620;2022-11-20T16:03:11;-5.60;99.90
37276;DHT22;23166;51.150;21.620;2022-11-20T16:05:38;-5.50;99.90
37276;DHT22;23166;51.150;21.620;2022-11-20T16:08:04;-5.30;99.90
37276;DHT22;23166;51.150;21.620;2022-11-20T16:10:31;-5.10;99.90
37276;DHT22;23166;51.150;21.620;2022-11-20T16:12:57;-4.90;99.90
37276;DHT22;23166;51.150;21.620;2022-11-20T16:15:45;-4.70;99.90
37276;DHT22;23166;51.150;21.620;2022-11-20T16:18:18;-4.60;99.90
37276;DHT22;23166;51.150;21.620;2022-11-20T16:20:48;-4.50;99.90
37276;DHT22;23166;51.150;21.620;2022-11-20T16:23:15;-4.30;99.90
37276;DHT22;23166;51.150;21.620;2022-11-20T16:25:42;-4.20;99.90
37276;DHT22;23166;51.150;21.620;2022-11-20T16:28:09;-4.00;99.90
37276;DHT22;23166;51.150;21.620;2022-11-20T16:30:36;-3.90;99.90
37276;DHT22;23166;51.150;21.620;2022-11-20T16:33:03;-3.80;99.90
37276;DHT22;23166;51.150;21.620;2022-11-20T16:35:31;-3.60;99.90
37276;DHT22;23166;51.150;21.620;2022-11-20T16:37:58;-3.50;99.90
37276;DHT22;23166;51.150;21.620;2022-11-20T16:40:24;-3.40;99.90
37276;DHT22;23166;51.150;21.620;2022-11-20T16:42:50;-3.30;99.90
37276;DHT22;23166;51.150;21.620;2022-11-20T16:45:17;-3.20;99.90
37276;DHT22;23166;51.150;21.620;2022-11-20T16:47:44;-3.10;99.90
37276;DHT22;23166;51.150;21.620;2022-11-20T16:50:10;-3.00;99.90
37276;DHT22;23166;51.150;21.620;2022-11-20T16:52:36;-2.90;99.90
37276;DHT22;23166;51.150;21.620;2022-11-20T16:55:03;-2.80;99.90
37276;DHT22;23166;51.150;21.620;2022-11-20T16:57:29;-2.80;99.90
37276;DHT22;23166;51.150;21.620;2022-11-20T16:59:58;-2.70;99.90
37276;DHT22;23166;51.150;21.620;2022-11-20T17:02:25;-2.60;99.90